createdAt,value
2019-02-08T00:04:41.192Z,1.30
2019-02-08T00:09:37.863Z,1.30
2019-02-08T00:14:33.821Z,1.40
2019-02-08T00:19:29.561Z,1.30
2019-02-08T00:24:25.407Z,1.40
2019-02-08T00:29:20.642Z,1.30
2019-02-08T00:34:15.480Z,1.50
2019-02-08T00:39:11.853Z,1.50
2019-02-08T00:44:07.287Z,1.50
2019-02-08T00:49:04.970Z,1.50
2019-02-08T00:54:00.854Z,1.60
2019-02-08T00:58:55.708Z,1.60
2019-02-08T01:03:52.394Z,1.60
2019-02-08T01:08:47.707Z,1.60
2019-02-08T01:13:41.908Z,1.50
2019-02-08T01:18:37.716Z,1.50
2019-02-08T01:23:40.853Z,1.40
2019-02-08T01:28:30.377Z,1.40
2019-02-08T01:33:27.404Z,1.40
2019-02-08T01:38:24.065Z,1.50
2019-02-08T01:43:18.697Z,1.40
2019-02-08T01:48:12.947Z,1.40
2019-02-08T01:53:09.365Z,1.40
2019-02-08T01:58:04.701Z,1.40
2019-02-08T02:02:59.146Z,1.50
2019-02-08T02:07:53.899Z,1.40
2019-02-08T02:12:51.737Z,1.30
2019-02-08T02:17:46.731Z,1.10
2019-02-08T02:22:43.149Z,1.10
2019-02-08T02:27:37.498Z,1.10
2019-02-08T02:32:32.719Z,1.30
2019-02-08T02:37:29.526Z,1.30
2019-02-08T02:42:24.335Z,1.30
2019-02-08T02:47:19.541Z,1.20
2019-02-08T02:52:13.908Z,1.20
2019-02-08T02:57:10.386Z,1.20
2019-02-08T03:02:06.528Z,1.10
2019-02-08T03:07:06.347Z,1.10
2019-02-08T03:12:01.740Z,0.90
2019-02-08T03:16:56.600Z,0.80
2019-02-08T03:21:50.647Z,0.80
2019-02-08T03:26:45.826Z,0.90
2019-02-08T03:31:41.938Z,0.90
2019-02-08T03:36:37.501Z,0.90
2019-02-08T03:41:33.476Z,0.70
2019-02-08T03:46:28.406Z,0.50
2019-02-08T03:51:23.092Z,0.50
2019-02-08T03:56:17.814Z,0.60
2019-02-08T04:01:13.703Z,0.80
2019-02-08T04:06:15.418Z,0.70
2019-02-08T04:11:09.847Z,0.60
2019-02-08T04:16:07.200Z,0.60
2019-02-08T04:21:02.412Z,0.40
2019-02-08T04:25:58.501Z,0.40
2019-02-08T04:30:54.402Z,0.40
2019-02-08T04:35:49.126Z,0.40
2019-02-08T04:40:43.398Z,0.50
2019-02-08T04:45:39.646Z,0.50
2019-02-08T04:50:33.844Z,0.70
2019-02-08T04:55:29.270Z,0.90
2019-02-08T05:00:28.945Z,0.80
2019-02-08T05:05:23.908Z,0.70
2019-02-08T05:10:30.232Z,0.80
2019-02-08T05:15:27.235Z,0.50
2019-02-08T05:20:30.769Z,0.40
2019-02-08T05:25:25.699Z,0.60
2019-02-08T05:30:25.951Z,0.70
2019-02-08T05:35:20.957Z,0.40
2019-02-08T05:40:17.737Z,0.30
2019-02-08T05:45:18.033Z,0.10
2019-02-08T05:50:24.645Z,0.10
2019-02-08T05:55:29.133Z,0.20
2019-02-08T06:00:27.495Z,0.50
2019-02-08T06:05:22.596Z,0.50
2019-02-08T06:10:17.276Z,0.60
2019-02-08T06:15:21.250Z,0.60
2019-02-08T06:20:22.873Z,0.50
2019-02-08T06:25:20.010Z,0.40
2019-02-08T06:30:17.587Z,0.40
2019-02-08T06:35:15.798Z,0.50
2019-02-08T06:40:21.394Z,0.50
2019-02-08T06:45:18.943Z,0.60
2019-02-08T06:50:16.366Z,0.80
2019-02-08T06:55:12.791Z,0.80
2019-02-08T07:00:24.123Z,0.80
2019-02-08T07:05:21.477Z,1.00
2019-02-08T07:10:34.120Z,1.30
2019-02-08T07:15:50.176Z,1.70
2019-02-08T07:21:02.690Z,3.70
2019-02-08T07:26:10.108Z,6.60
2019-02-08T07:31:35.158Z,9.20
2019-02-08T07:36:32.374Z,10.90
2019-02-08T07:41:39.738Z,12.60
2019-02-08T07:46:37.388Z,14.30
2019-02-08T07:51:33.428Z,15.80
2019-02-08T07:56:33.084Z,17.10
2019-02-08T08:01:35.975Z,17.40
2019-02-08T08:06:34.664Z,17.20
2019-02-08T08:11:32.616Z,16.60
2019-02-08T08:16:30.344Z,14.60
2019-02-08T08:21:33.862Z,14.50
2019-02-08T08:26:31.009Z,15.00
2019-02-08T08:31:32.889Z,14.20
2019-02-08T08:36:34.620Z,14.40
2019-02-08T08:42:06.924Z,13.80
2019-02-08T08:47:43.370Z,12.70
2019-02-08T08:53:06.067Z,10.70
2019-02-08T08:58:38.947Z,11.40
2019-02-08T09:04:08.401Z,14.50
2019-02-08T09:14:31.116Z,17.30
2019-02-08T09:19:46.809Z,16.30
2019-02-08T09:24:59.864Z,16.00
2019-02-08T09:30:24.434Z,15.00
2019-02-08T09:35:41.474Z,13.30
2019-02-08T09:41:11.454Z,12.20
2019-02-08T09:46:29.162Z,13.10
2019-02-08T09:51:49.409Z,18.70
2019-02-08T09:57:16.536Z,22.70
2019-02-08T10:02:42.192Z,23.90
2019-02-08T10:08:13.891Z,25.40
2019-02-08T10:13:47.946Z,25.80
2019-02-08T10:19:12.975Z,26.20
2019-02-08T10:24:14.134Z,27.40
2019-02-08T10:29:38.842Z,28.90
2019-02-08T10:34:55.349Z,27.20
2019-02-08T10:40:21.530Z,27.20
2019-02-08T10:45:19.486Z,28.20
2019-02-08T10:50:29.690Z,27.00
2019-02-08T10:55:47.581Z,27.60
2019-02-08T11:00:48.796Z,28.10
2019-02-08T11:06:11.101Z,27.80
2019-02-08T11:11:36.781Z,27.70
2019-02-08T11:17:09.859Z,29.80
2019-02-08T11:22:07.174Z,28.40
2019-02-08T11:27:09.107Z,28.10
2019-02-08T11:32:04.692Z,28.20
2019-02-08T11:36:59.469Z,27.70
2019-02-08T11:41:54.700Z,28.20
2019-02-08T11:46:49.160Z,28.20
2019-02-08T11:51:44.751Z,28.00
2019-02-08T11:56:40.775Z,26.50
2019-02-08T12:01:39.763Z,23.90
2019-02-08T12:06:40.200Z,20.70
2019-02-08T12:11:35.898Z,18.10
2019-02-08T12:16:35.871Z,15.80
2019-02-08T12:21:31.760Z,14.70
2019-02-08T12:26:26.703Z,13.70
2019-02-08T12:31:21.096Z,12.80
2019-02-08T12:36:17.057Z,12.50
2019-02-08T12:41:12.984Z,12.20
2019-02-08T12:46:10.136Z,11.90
2019-02-08T12:51:08.132Z,11.70
2019-02-08T12:56:05.212Z,11.60
2019-02-08T13:01:00.542Z,11.60
2019-02-08T13:05:55.016Z,11.50
2019-02-08T13:10:50.364Z,11.20
2019-02-08T13:15:46.706Z,10.90
2019-02-08T13:20:40.884Z,10.70
2019-02-08T13:25:37.466Z,10.50
2019-02-08T13:30:38.931Z,10.40
2019-02-08T13:35:35.763Z,10.40
2019-02-08T13:40:32.220Z,10.50
2019-02-08T13:45:27.075Z,10.40
2019-02-08T13:50:24.165Z,10.30
2019-02-08T13:55:22.288Z,10.00
2019-02-08T14:00:42.378Z,9.70
2019-02-08T14:05:38.968Z,9.60
2019-02-08T14:10:33.554Z,9.50
2019-02-08T14:15:28.592Z,9.50
2019-02-08T14:20:26.096Z,9.40
2019-02-08T14:25:21.617Z,9.20
2019-02-08T14:30:22.324Z,9.10
2019-02-08T14:35:17.359Z,9.10
2019-02-08T14:40:23.701Z,8.90
2019-02-08T14:45:21.362Z,8.90
2019-02-08T14:50:22.142Z,8.80
2019-02-08T14:55:18.177Z,8.70
2019-02-08T15:00:15.655Z,8.60
2019-02-08T15:05:15.447Z,8.60
2019-02-08T15:10:21.560Z,8.40
2019-02-08T15:15:16.063Z,8.30
2019-02-08T15:20:17.903Z,8.20
2019-02-08T15:25:12.950Z,7.90
2019-02-08T15:30:11.571Z,7.70
2019-02-08T15:35:09.614Z,7.50
2019-02-08T15:40:06.711Z,7.30
2019-02-08T15:45:05.139Z,7.00
2019-02-08T15:50:00.538Z,6.90
2019-02-08T15:54:55.445Z,6.80
2019-02-08T15:59:51.422Z,6.60
2019-02-08T16:04:46.887Z,6.50
2019-02-08T16:09:46.214Z,6.40
2019-02-08T16:14:41.303Z,6.30
2019-02-08T16:19:35.985Z,6.20
2019-02-08T16:24:36.543Z,6.10
2019-02-08T16:29:32.145Z,6.00
2019-02-08T16:34:27.661Z,6.00
2019-02-08T16:39:23.869Z,5.90
2019-02-08T16:44:19.603Z,5.90
2019-02-08T16:49:14.246Z,5.80
2019-02-08T16:54:25.169Z,5.70
2019-02-08T16:59:22.714Z,5.60
2019-02-08T17:04:18.762Z,5.50
2019-02-08T17:09:23.549Z,5.40
2019-02-08T17:14:21.501Z,5.40
2019-02-08T17:19:24.727Z,5.30
2019-02-08T17:24:19.715Z,5.30
2019-02-08T17:29:15.094Z,5.20
2019-02-08T17:34:10.051Z,5.20
2019-02-08T17:39:08.644Z,5.20
2019-02-08T17:44:11.340Z,5.10
2019-02-08T17:49:27.268Z,5.20
2019-02-08T17:54:25.905Z,5.10
2019-02-08T18:04:14.652Z,5.00
2019-02-08T18:09:09.889Z,5.10
2019-02-08T18:14:04.530Z,5.10
2019-02-08T18:19:00.589Z,5.10
2019-02-08T18:23:55.652Z,5.10
2019-02-08T18:28:51.887Z,5.10
2019-02-08T18:33:48.118Z,5.10
2019-02-08T18:38:43.348Z,5.10
2019-02-08T18:43:37.963Z,5.20
2019-02-08T18:48:34.188Z,5.20
2019-02-08T18:53:29.581Z,5.20
2019-02-08T18:58:23.541Z,5.30
2019-02-08T19:03:19.603Z,5.30
2019-02-08T19:08:16.644Z,5.40
2019-02-08T19:13:11.893Z,5.40
2019-02-08T19:18:06.734Z,5.30
2019-02-08T19:23:04.427Z,5.30
2019-02-08T19:27:58.514Z,5.30
2019-02-08T19:32:53.408Z,5.30
2019-02-08T19:37:48.188Z,5.30
2019-02-08T19:42:43.379Z,5.30
2019-02-08T19:47:38.884Z,5.30
2019-02-08T19:52:33.110Z,5.30
2019-02-08T19:57:28.479Z,5.40
2019-02-08T20:02:24.746Z,5.40
2019-02-08T20:07:19.821Z,5.40
2019-02-08T20:12:14.861Z,5.40
2019-02-08T20:17:13.689Z,5.50
2019-02-08T20:22:17.367Z,5.50
2019-02-08T20:27:12.137Z,5.50
2019-02-08T20:32:07.980Z,5.50
2019-02-08T20:37:05.549Z,5.50
2019-02-08T20:42:01.624Z,5.50
2019-02-08T20:46:56.502Z,5.50
2019-02-08T20:51:51.778Z,5.50
2019-02-08T20:56:46.124Z,5.50
2019-02-08T21:01:42.883Z,5.40
2019-02-08T21:06:38.952Z,5.40
2019-02-08T21:11:34.487Z,5.30
2019-02-08T21:16:30.541Z,5.30
2019-02-08T21:21:26.736Z,5.40
2019-02-08T21:26:22.601Z,5.40
2019-02-08T21:31:16.575Z,5.40
2019-02-08T21:36:13.801Z,5.40
2019-02-08T21:41:08.414Z,5.30
2019-02-08T21:46:06.123Z,5.30
2019-02-08T21:51:00.635Z,5.30
2019-02-08T21:55:56.526Z,5.30
2019-02-08T22:00:50.829Z,5.30
2019-02-08T22:05:54.249Z,5.30
2019-02-08T22:10:49.482Z,5.40
2019-02-08T22:15:45.901Z,5.50
2019-02-08T22:20:43.624Z,5.60
2019-02-08T22:25:40.633Z,5.70
2019-02-08T22:30:35.498Z,5.70
2019-02-08T22:35:30.001Z,5.80
2019-02-08T22:40:25.896Z,5.80
2019-02-08T22:45:24.559Z,5.80
2019-02-08T22:50:21.773Z,5.90
2019-02-08T22:55:23.812Z,6.00
2019-02-08T23:00:43.482Z,6.10
2019-02-08T23:05:45.377Z,6.10
2019-02-08T23:10:37.230Z,6.20
2019-02-08T23:15:34.490Z,6.30
2019-02-08T23:20:32.449Z,6.30
2019-02-08T23:25:26.683Z,6.30
2019-02-08T23:30:25.257Z,6.30
2019-02-08T23:35:19.934Z,6.30
2019-02-08T23:40:15.866Z,6.30
2019-02-08T23:45:18.099Z,6.30
2019-02-08T23:50:17.041Z,6.30
2019-02-08T23:55:14.319Z,6.30
